Surface Data

81.9 °F / 27.7 °C
ENE at 6 MPH
81%
75.6°F / 24.2 °C
29.78" (1008 mb)
10 mile(s)
partly cloudy
2022.08.09 0500 UTC

Surface Data

Raw METARs

2022/08/09 05:00
PKWA 090500Z AUTO 06005KT 10SM SCT110 28/24 A2978 RMK AO2 T02770242

Translated METAR

Kwajalein, Bucholz AAF, Kwajalein KMR ATOL Airport, Marshall Islands (PKWA) 08-43N 167-44E 2M
Aug 09, 2022 - 01:00 AM EDT / 2022.08.09 0500 UTC
Wind: from the ENE (060 degrees) at 6 MPH (5 KT):0
Visibility: 10 mile(s):0
Sky conditions: partly cloudy
Temperature: 81.9 F (27.7 C)
Dew Point: 75.6 F (24.2 C)
Relative Humidity: 81%
Pressure (altimeter): 29.78 in. Hg (1008 hPa)
ob: PKWA 090500Z AUTO 06005KT 10SM SCT110 28/24 A2978 RMK AO2 T02770242
cycle: 5